sensor_id;sensor_type;location;lat;lon;timestamp;P1;durP1;ratioP1;P2;durP2;ratioP2
54271;SDS011;40184;53.362;5.216;2023-12-07T00:00:31;4.15;;;1.23;;
54271;SDS011;40184;53.362;5.216;2023-12-07T00:02:57;5.05;;;1.77;;
54271;SDS011;40184;53.362;5.216;2023-12-07T00:05:25;6.38;;;1.83;;
54271;SDS011;40184;53.362;5.216;2023-12-07T00:07:51;3.25;;;1.58;;
54271;SDS011;40184;53.362;5.216;2023-12-07T00:10:17;5.47;;;1.75;;
54271;SDS011;40184;53.362;5.216;2023-12-07T00:12:43;4.57;;;2.28;;
54271;SDS011;40184;53.362;5.216;2023-12-07T00:15:09;4.85;;;1.70;;
54271;SDS011;40184;53.362;5.216;2023-12-07T00:17:35;8.95;;;2.22;;
54271;SDS011;40184;53.362;5.216;2023-12-07T00:20:01;2.55;;;1.55;;
54271;SDS011;40184;53.362;5.216;2023-12-07T00:22:29;3.17;;;1.75;;
54271;SDS011;40184;53.362;5.216;2023-12-07T00:24:55;6.20;;;1.38;;
54271;SDS011;40184;53.362;5.216;2023-12-07T00:27:21;1.65;;;1.45;;
54271;SDS011;40184;53.362;5.216;2023-12-07T00:29:47;3.83;;;1.90;;
54271;SDS011;40184;53.362;5.216;2023-12-07T00:32:13;3.72;;;1.80;;
54271;SDS011;40184;53.362;5.216;2023-12-07T00:34:39;6.45;;;2.08;;
54271;SDS011;40184;53.362;5.216;2023-12-07T00:37:05;4.93;;;2.35;;
54271;SDS011;40184;53.362;5.216;2023-12-07T00:39:32;1.95;;;1.38;;
54271;SDS011;40184;53.362;5.216;2023-12-07T00:41:58;13.73;;;2.88;;
54271;SDS011;40184;53.362;5.216;2023-12-07T00:44:24;9.52;;;3.17;;
54271;SDS011;40184;53.362;5.216;2023-12-07T00:46:50;3.08;;;1.40;;
54271;SDS011;40184;53.362;5.216;2023-12-07T00:49:16;4.20;;;1.83;;
54271;SDS011;40184;53.362;5.216;2023-12-07T00:51:42;5.03;;;1.85;;
54271;SDS011;40184;53.362;5.216;2023-12-07T00:54:08;5.82;;;2.20;;
54271;SDS011;40184;53.362;5.216;2023-12-07T00:56:34;2.95;;;1.40;;
54271;SDS011;40184;53.362;5.216;2023-12-07T00:59:02;3.67;;;1.60;;
54271;SDS011;40184;53.362;5.216;2023-12-07T01:01:28;4.40;;;1.67;;
54271;SDS011;40184;53.362;5.216;2023-12-07T01:03:54;8.73;;;2.17;;
54271;SDS011;40184;53.362;5.216;2023-12-07T01:06:20;4.75;;;1.40;;
54271;SDS011;40184;53.362;5.216;2023-12-07T01:08:46;5.38;;;2.78;;
54271;SDS011;40184;53.362;5.216;2023-12-07T01:11:12;2.83;;;1.63;;
54271;SDS011;40184;53.362;5.216;2023-12-07T01:13:38;3.20;;;1.77;;
54271;SDS011;40184;53.362;5.216;2023-12-07T01:16:04;5.03;;;1.60;;
54271;SDS011;40184;53.362;5.216;2023-12-07T01:18:30;5.10;;;1.60;;
54271;SDS011;40184;53.362;5.216;2023-12-07T01:20:57;3.58;;;1.67;;
54271;SDS011;40184;53.362;5.216;2023-12-07T01:23:23;4.97;;;1.60;;
54271;SDS011;40184;53.362;5.216;2023-12-07T01:25:49;3.58;;;1.55;;
54271;SDS011;40184;53.362;5.216;2023-12-07T01:28:15;3.20;;;1.33;;
54271;SDS011;40184;53.362;5.216;2023-12-07T01:30:42;3.03;;;1.30;;
54271;SDS011;40184;53.362;5.216;2023-12-07T01:33:08;2.97;;;1.60;;
54271;SDS011;40184;53.362;5.216;2023-12-07T01:35:34;2.83;;;1.38;;
54271;SDS011;40184;53.362;5.216;2023-12-07T01:38:00;4.45;;;1.77;;
54271;SDS011;40184;53.362;5.216;2023-12-07T01:40:26;5.25;;;1.52;;
54271;SDS011;40184;53.362;5.216;2023-12-07T01:42:52;2.20;;;1.25;;
54271;SDS011;40184;53.362;5.216;2023-12-07T01:45:19;5.53;;;1.70;;
54271;SDS011;40184;53.362;5.216;2023-12-07T01:47:45;4.50;;;1.70;;
54271;SDS011;40184;53.362;5.216;2023-12-07T01:50:12;2.78;;;1.30;;
54271;SDS011;40184;53.362;5.216;2023-12-07T01:52:43;3.17;;;1.38;;
54271;SDS011;40184;53.362;5.216;2023-12-07T01:55:09;3.83;;;1.40;;
54271;SDS011;40184;53.362;5.216;2023-12-07T01:57:36;3.17;;;1.30;;
54271;SDS011;40184;53.362;5.216;2023-12-07T02:00:02;7.38;;;1.30;;
54271;SDS011;40184;53.362;5.216;2023-12-07T02:02:29;2.72;;;1.60;;
54271;SDS011;40184;53.362;5.216;2023-12-07T02:04:55;2.05;;;1.50;;
54271;SDS011;40184;53.362;5.216;2023-12-07T02:07:22;4.95;;;2.50;;
54271;SDS011;40184;53.362;5.216;2023-12-07T02:09:49;4.15;;;2.17;;
54271;SDS011;40184;53.362;5.216;2023-12-07T02:12:15;4.75;;;1.92;;
54271;SDS011;40184;53.362;5.216;2023-12-07T02:14:41;5.43;;;1.90;;
54271;SDS011;40184;53.362;5.216;2023-12-07T02:19:55;4.60;;;1.40;;
54271;SDS011;40184;53.362;5.216;2023-12-07T02:22:24;2.92;;;1.80;;
54271;SDS011;40184;53.362;5.216;2023-12-07T02:25:05;5.35;;;1.52;;
54271;SDS011;40184;53.362;5.216;2023-12-07T02:27:33;1.73;;;1.42;;
54271;SDS011;40184;53.362;5.216;2023-12-07T02:29:59;3.97;;;1.58;;
54271;SDS011;40184;53.362;5.216;2023-12-07T02:32:25;2.58;;;1.55;;
54271;SDS011;40184;53.362;5.216;2023-12-07T02:34:51;2.83;;;1.80;;
54271;SDS011;40184;53.362;5.216;2023-12-07T02:37:18;3.80;;;1.60;;
54271;SDS011;40184;53.362;5.216;2023-12-07T02:39:45;3.60;;;2.55;;
54271;SDS011;40184;53.362;5.216;2023-12-07T02:42:11;4.40;;;2.20;;
54271;SDS011;40184;53.362;5.216;2023-12-07T02:44:39;3.08;;;2.20;;
54271;SDS011;40184;53.362;5.216;2023-12-07T02:47:05;7.18;;;2.00;;
54271;SDS011;40184;53.362;5.216;2023-12-07T02:49:31;2.22;;;1.85;;
54271;SDS011;40184;53.362;5.216;2023-12-07T02:51:57;4.05;;;3.13;;
54271;SDS011;40184;53.362;5.216;2023-12-07T02:54:23;6.78;;;2.75;;
54271;SDS011;40184;53.362;5.216;2023-12-07T02:56:49;4.63;;;1.80;;
54271;SDS011;40184;53.362;5.216;2023-12-07T02:59:15;7.03;;;2.10;;
54271;SDS011;40184;53.362;5.216;2023-12-07T03:01:41;3.97;;;2.47;;
54271;SDS011;40184;53.362;5.216;2023-12-07T03:04:08;4.35;;;2.53;;
54271;SDS011;40184;53.362;5.216;2023-12-07T03:06:34;2.20;;;2.00;;
54271;SDS011;40184;53.362;5.216;2023-12-07T03:09:00;3.53;;;1.95;;
54271;SDS011;40184;53.362;5.216;2023-12-07T03:11:26;5.72;;;2.10;;
54271;SDS011;40184;53.362;5.216;2023-12-07T03:13:53;4.82;;;1.98;;
54271;SDS011;40184;53.362;5.216;2023-12-07T03:16:19;3.28;;;2.00;;
54271;SDS011;40184;53.362;5.216;2023-12-07T03:18:45;2.10;;;1.90;;
54271;SDS011;40184;53.362;5.216;2023-12-07T03:21:11;2.45;;;1.95;;
54271;SDS011;40184;53.362;5.216;2023-12-07T03:23:37;4.47;;;2.10;;
54271;SDS011;40184;53.362;5.216;2023-12-07T03:26:03;2.53;;;2.00;;
54271;SDS011;40184;53.362;5.216;2023-12-07T03:28:29;5.47;;;2.40;;
54271;SDS011;40184;53.362;5.216;2023-12-07T03:30:55;3.85;;;2.38;;
54271;SDS011;40184;53.362;5.216;2023-12-07T03:33:21;2.95;;;2.60;;
54271;SDS011;40184;53.362;5.216;2023-12-07T03:35:47;3.92;;;1.75;;
54271;SDS011;40184;53.362;5.216;2023-12-07T03:38:14;3.60;;;2.13;;
54271;SDS011;40184;53.362;5.216;2023-12-07T03:40:40;2.42;;;1.85;;
54271;SDS011;40184;53.362;5.216;2023-12-07T03:43:06;8.07;;;2.42;;
54271;SDS011;40184;53.362;5.216;2023-12-07T03:45:32;5.10;;;2.33;;
54271;SDS011;40184;53.362;5.216;2023-12-07T03:47:58;4.35;;;2.35;;
54271;SDS011;40184;53.362;5.216;2023-12-07T03:50:24;4.97;;;2.22;;
54271;SDS011;40184;53.362;5.216;2023-12-07T03:52:50;6.45;;;2.22;;
54271;SDS011;40184;53.362;5.216;2023-12-07T03:55:16;7.15;;;2.15;;
54271;SDS011;40184;53.362;5.216;2023-12-07T03:57:42;1.75;;;1.45;;
54271;SDS011;40184;53.362;5.216;2023-12-07T04:00:10;2.92;;;1.73;;
54271;SDS011;40184;53.362;5.216;2023-12-07T04:02:36;2.65;;;1.58;;
54271;SDS011;40184;53.362;5.216;2023-12-07T04:05:03;5.63;;;2.30;;
54271;SDS011;40184;53.362;5.216;2023-12-07T04:07:29;5.15;;;1.70;;
54271;SDS011;40184;53.362;5.216;2023-12-07T04:09:55;1.90;;;1.80;;
54271;SDS011;40184;53.362;5.216;2023-12-07T04:12:22;6.18;;;2.38;;
54271;SDS011;40184;53.362;5.216;2023-12-07T04:14:50;4.15;;;2.25;;
54271;SDS011;40184;53.362;5.216;2023-12-07T04:17:17;2.22;;;1.83;;
54271;SDS011;40184;53.362;5.216;2023-12-07T04:19:43;5.32;;;1.95;;
54271;SDS011;40184;53.362;5.216;2023-12-07T04:22:09;6.03;;;2.88;;
54271;SDS011;40184;53.362;5.216;2023-12-07T04:24:35;2.95;;;1.70;;
54271;SDS011;40184;53.362;5.216;2023-12-07T04:27:01;2.00;;;1.75;;
54271;SDS011;40184;53.362;5.216;2023-12-07T04:29:27;3.55;;;1.80;;
54271;SDS011;40184;53.362;5.216;2023-12-07T04:31:53;3.78;;;1.85;;
54271;SDS011;40184;53.362;5.216;2023-12-07T04:34:19;4.43;;;1.75;;
54271;SDS011;40184;53.362;5.216;2023-12-07T04:36:45;4.43;;;1.88;;
54271;SDS011;40184;53.362;5.216;2023-12-07T04:39:11;5.05;;;2.38;;
54271;SDS011;40184;53.362;5.216;2023-12-07T04:41:37;4.05;;;1.90;;
54271;SDS011;40184;53.362;5.216;2023-12-07T04:44:03;5.00;;;2.22;;
54271;SDS011;40184;53.362;5.216;2023-12-07T04:46:29;3.50;;;1.90;;
54271;SDS011;40184;53.362;5.216;2023-12-07T04:48:55;3.80;;;2.00;;
54271;SDS011;40184;53.362;5.216;2023-12-07T04:51:21;1.83;;;1.70;;
54271;SDS011;40184;53.362;5.216;2023-12-07T04:53:48;4.32;;;2.00;;
54271;SDS011;40184;53.362;5.216;2023-12-07T04:56:14;5.47;;;2.30;;
54271;SDS011;40184;53.362;5.216;2023-12-07T04:58:40;4.13;;;1.92;;
54271;SDS011;40184;53.362;5.216;2023-12-07T05:01:06;2.53;;;2.03;;
54271;SDS011;40184;53.362;5.216;2023-12-07T05:03:32;3.85;;;2.30;;
54271;SDS011;40184;53.362;5.216;2023-12-07T05:05:58;1.98;;;1.85;;
54271;SDS011;40184;53.362;5.216;2023-12-07T05:08:24;2.20;;;2.03;;
54271;SDS011;40184;53.362;5.216;2023-12-07T05:10:51;4.60;;;2.20;;
54271;SDS011;40184;53.362;5.216;2023-12-07T05:13:17;2.83;;;2.03;;
54271;SDS011;40184;53.362;5.216;2023-12-07T05:15:43;4.80;;;2.53;;
54271;SDS011;40184;53.362;5.216;2023-12-07T05:18:09;1.65;;;1.55;;
54271;SDS011;40184;53.362;5.216;2023-12-07T05:20:35;2.20;;;1.95;;
54271;SDS011;40184;53.362;5.216;2023-12-07T05:23:04;4.60;;;1.83;;
54271;SDS011;40184;53.362;5.216;2023-12-07T05:25:30;4.18;;;1.42;;
54271;SDS011;40184;53.362;5.216;2023-12-07T05:27:57;5.88;;;1.63;;
54271;SDS011;40184;53.362;5.216;2023-12-07T05:30:23;4.75;;;2.03;;
54271;SDS011;40184;53.362;5.216;2023-12-07T05:32:49;3.10;;;2.20;;
54271;SDS011;40184;53.362;5.216;2023-12-07T05:35:16;3.55;;;2.08;;
54271;SDS011;40184;53.362;5.216;2023-12-07T05:37:42;4.85;;;1.77;;
54271;SDS011;40184;53.362;5.216;2023-12-07T05:40:08;4.38;;;1.80;;
54271;SDS011;40184;53.362;5.216;2023-12-07T05:42:35;4.05;;;2.50;;
54271;SDS011;40184;53.362;5.216;2023-12-07T05:45:01;5.43;;;2.85;;
54271;SDS011;40184;53.362;5.216;2023-12-07T05:47:27;4.45;;;2.88;;
54271;SDS011;40184;53.362;5.216;2023-12-07T05:49:53;2.65;;;2.35;;
54271;SDS011;40184;53.362;5.216;2023-12-07T05:52:22;3.28;;;2.97;;
54271;SDS011;40184;53.362;5.216;2023-12-07T05:54:48;5.43;;;3.63;;
54271;SDS011;40184;53.362;5.216;2023-12-07T05:57:14;4.40;;;3.13;;
54271;SDS011;40184;53.362;5.216;2023-12-07T05:59:40;3.88;;;3.47;;
54271;SDS011;40184;53.362;5.216;2023-12-07T06:02:09;5.18;;;3.55;;
54271;SDS011;40184;53.362;5.216;2023-12-07T06:04:36;6.03;;;4.25;;
54271;SDS011;40184;53.362;5.216;2023-12-07T06:07:02;6.93;;;5.13;;
54271;SDS011;40184;53.362;5.216;2023-12-07T06:09:28;6.32;;;4.22;;
54271;SDS011;40184;53.362;5.216;2023-12-07T06:11:54;9.23;;;4.63;;
54271;SDS011;40184;53.362;5.216;2023-12-07T06:14:20;7.60;;;5.07;;
54271;SDS011;40184;53.362;5.216;2023-12-07T06:16:48;8.13;;;4.75;;
54271;SDS011;40184;53.362;5.216;2023-12-07T06:19:14;7.30;;;5.55;;
54271;SDS011;40184;53.362;5.216;2023-12-07T06:21:40;6.28;;;4.03;;
54271;SDS011;40184;53.362;5.216;2023-12-07T06:24:06;4.55;;;3.95;;
54271;SDS011;40184;53.362;5.216;2023-12-07T06:26:32;8.40;;;4.45;;
54271;SDS011;40184;53.362;5.216;2023-12-07T06:28:59;7.55;;;4.10;;
54271;SDS011;40184;53.362;5.216;2023-12-07T06:31:25;8.30;;;4.13;;
54271;SDS011;40184;53.362;5.216;2023-12-07T06:33:51;8.52;;;4.90;;
54271;SDS011;40184;53.362;5.216;2023-12-07T06:36:17;4.38;;;3.78;;
54271;SDS011;40184;53.362;5.216;2023-12-07T06:38:44;9.45;;;5.28;;
54271;SDS011;40184;53.362;5.216;2023-12-07T06:41:10;7.78;;;4.35;;
54271;SDS011;40184;53.362;5.216;2023-12-07T06:43:36;6.82;;;5.13;;
54271;SDS011;40184;53.362;5.216;2023-12-07T06:46:02;7.10;;;4.75;;
54271;SDS011;40184;53.362;5.216;2023-12-07T06:48:28;9.88;;;4.95;;
54271;SDS011;40184;53.362;5.216;2023-12-07T06:50:54;10.70;;;6.13;;
54271;SDS011;40184;53.362;5.216;2023-12-07T06:53:21;10.00;;;6.00;;
54271;SDS011;40184;53.362;5.216;2023-12-07T06:55:47;8.90;;;5.80;;
54271;SDS011;40184;53.362;5.216;2023-12-07T06:58:13;9.05;;;6.18;;
54271;SDS011;40184;53.362;5.216;2023-12-07T07:00:39;12.95;;;6.72;;
54271;SDS011;40184;53.362;5.216;2023-12-07T07:03:05;9.25;;;6.93;;
54271;SDS011;40184;53.362;5.216;2023-12-07T07:05:31;10.20;;;7.45;;
54271;SDS011;40184;53.362;5.216;2023-12-07T07:07:57;12.07;;;8.25;;
54271;SDS011;40184;53.362;5.216;2023-12-07T07:10:23;9.68;;;7.85;;
54271;SDS011;40184;53.362;5.216;2023-12-07T07:12:49;11.00;;;7.97;;
54271;SDS011;40184;53.362;5.216;2023-12-07T07:15:16;12.00;;;7.43;;
54271;SDS011;40184;53.362;5.216;2023-12-07T07:17:42;9.77;;;7.60;;
54271;SDS011;40184;53.362;5.216;2023-12-07T07:20:08;12.65;;;8.55;;
54271;SDS011;40184;53.362;5.216;2023-12-07T07:22:34;11.07;;;8.15;;
54271;SDS011;40184;53.362;5.216;2023-12-07T07:25:00;12.10;;;8.27;;
54271;SDS011;40184;53.362;5.216;2023-12-07T07:27:27;12.10;;;8.68;;
54271;SDS011;40184;53.362;5.216;2023-12-07T07:29:53;11.90;;;9.05;;
54271;SDS011;40184;53.362;5.216;2023-12-07T07:32:20;10.88;;;8.48;;
54271;SDS011;40184;53.362;5.216;2023-12-07T07:34:46;17.30;;;8.73;;
54271;SDS011;40184;53.362;5.216;2023-12-07T07:37:12;12.57;;;8.50;;
54271;SDS011;40184;53.362;5.216;2023-12-07T07:39:38;11.95;;;7.70;;
54271;SDS011;40184;53.362;5.216;2023-12-07T07:42:04;15.70;;;8.32;;
54271;SDS011;40184;53.362;5.216;2023-12-07T07:44:30;15.90;;;9.90;;
54271;SDS011;40184;53.362;5.216;2023-12-07T07:46:56;15.40;;;9.88;;
54271;SDS011;40184;53.362;5.216;2023-12-07T07:49:22;15.38;;;11.07;;
54271;SDS011;40184;53.362;5.216;2023-12-07T07:51:49;16.40;;;11.77;;
54271;SDS011;40184;53.362;5.216;2023-12-07T07:54:16;16.52;;;12.18;;
54271;SDS011;40184;53.362;5.216;2023-12-07T07:56:43;16.75;;;12.25;;
54271;SDS011;40184;53.362;5.216;2023-12-07T07:59:09;15.25;;;12.38;;
54271;SDS011;40184;53.362;5.216;2023-12-07T08:01:36;16.08;;;12.63;;
54271;SDS011;40184;53.362;5.216;2023-12-07T08:04:02;18.15;;;12.52;;
54271;SDS011;40184;53.362;5.216;2023-12-07T08:06:28;16.77;;;11.70;;
54271;SDS011;40184;53.362;5.216;2023-12-07T08:08:54;17.50;;;12.48;;
54271;SDS011;40184;53.362;5.216;2023-12-07T08:11:21;23.33;;;13.35;;
54271;SDS011;40184;53.362;5.216;2023-12-07T08:13:47;17.92;;;12.65;;
54271;SDS011;40184;53.362;5.216;2023-12-07T08:16:13;18.45;;;12.75;;
54271;SDS011;40184;53.362;5.216;2023-12-07T08:18:39;24.20;;;14.90;;
54271;SDS011;40184;53.362;5.216;2023-12-07T08:21:05;22.08;;;14.20;;
54271;SDS011;40184;53.362;5.216;2023-12-07T08:23:33;21.55;;;14.60;;
54271;SDS011;40184;53.362;5.216;2023-12-07T08:26:00;20.20;;;13.57;;
54271;SDS011;40184;53.362;5.216;2023-12-07T08:28:27;18.60;;;14.00;;
54271;SDS011;40184;53.362;5.216;2023-12-07T08:30:53;20.33;;;16.13;;
54271;SDS011;40184;53.362;5.216;2023-12-07T08:33:19;21.80;;;16.50;;
54271;SDS011;40184;53.362;5.216;2023-12-07T08:35:45;27.27;;;19.60;;
54271;SDS011;40184;53.362;5.216;2023-12-07T08:38:11;24.88;;;20.35;;
54271;SDS011;40184;53.362;5.216;2023-12-07T08:40:38;30.00;;;20.23;;
54271;SDS011;40184;53.362;5.216;2023-12-07T08:43:04;27.00;;;20.60;;
54271;SDS011;40184;53.362;5.216;2023-12-07T08:45:30;24.25;;;18.92;;
54271;SDS011;40184;53.362;5.216;2023-12-07T08:47:56;23.08;;;18.85;;
54271;SDS011;40184;53.362;5.216;2023-12-07T08:50:22;23.42;;;18.73;;
54271;SDS011;40184;53.362;5.216;2023-12-07T08:52:48;21.25;;;17.10;;
54271;SDS011;40184;53.362;5.216;2023-12-07T08:55:14;19.02;;;16.60;;
54271;SDS011;40184;53.362;5.216;2023-12-07T08:57:40;24.13;;;16.33;;
54271;SDS011;40184;53.362;5.216;2023-12-07T09:00:06;20.13;;;16.15;;
54271;SDS011;40184;53.362;5.216;2023-12-07T09:02:32;19.10;;;16.30;;
54271;SDS011;40184;53.362;5.216;2023-12-07T09:04:59;21.65;;;15.43;;
54271;SDS011;40184;53.362;5.216;2023-12-07T09:07:25;21.02;;;15.55;;
54271;SDS011;40184;53.362;5.216;2023-12-07T09:09:51;19.70;;;15.38;;
54271;SDS011;40184;53.362;5.216;2023-12-07T09:12:17;26.95;;;14.63;;
54271;SDS011;40184;53.362;5.216;2023-12-07T09:14:43;25.60;;;16.00;;
54271;SDS011;40184;53.362;5.216;2023-12-07T09:17:09;19.52;;;15.02;;
54271;SDS011;40184;53.362;5.216;2023-12-07T09:19:35;17.77;;;15.07;;
54271;SDS011;40184;53.362;5.216;2023-12-07T09:22:01;20.92;;;15.90;;
54271;SDS011;40184;53.362;5.216;2023-12-07T09:24:28;19.70;;;15.02;;
54271;SDS011;40184;53.362;5.216;2023-12-07T09:26:54;19.83;;;14.90;;
54271;SDS011;40184;53.362;5.216;2023-12-07T09:29:20;21.38;;;14.68;;
54271;SDS011;40184;53.362;5.216;2023-12-07T09:31:46;16.77;;;14.68;;
54271;SDS011;40184;53.362;5.216;2023-12-07T09:34:12;18.90;;;16.05;;
54271;SDS011;40184;53.362;5.216;2023-12-07T09:36:42;26.77;;;16.35;;
54271;SDS011;40184;53.362;5.216;2023-12-07T09:39:08;19.75;;;17.65;;
54271;SDS011;40184;53.362;5.216;2023-12-07T09:41:35;23.42;;;17.10;;
54271;SDS011;40184;53.362;5.216;2023-12-07T09:44:02;18.52;;;16.55;;
54271;SDS011;40184;53.362;5.216;2023-12-07T09:46:28;21.52;;;16.90;;
54271;SDS011;40184;53.362;5.216;2023-12-07T09:48:55;22.75;;;16.30;;
54271;SDS011;40184;53.362;5.216;2023-12-07T09:51:22;21.23;;;17.08;;
54271;SDS011;40184;53.362;5.216;2023-12-07T09:53:48;16.85;;;15.05;;
54271;SDS011;40184;53.362;5.216;2023-12-07T09:56:15;17.58;;;15.75;;
54271;SDS011;40184;53.362;5.216;2023-12-07T09:58:41;18.58;;;15.48;;
54271;SDS011;40184;53.362;5.216;2023-12-07T10:01:07;19.95;;;16.15;;
54271;SDS011;40184;53.362;5.216;2023-12-07T10:03:34;21.00;;;16.60;;
54271;SDS011;40184;53.362;5.216;2023-12-07T10:06:00;21.63;;;16.15;;
54271;SDS011;40184;53.362;5.216;2023-12-07T10:08:30;18.38;;;16.42;;
54271;SDS011;40184;53.362;5.216;2023-12-07T10:13:30;18.83;;;15.85;;
54271;SDS011;40184;53.362;5.216;2023-12-07T10:16:06;17.20;;;15.38;;
54271;SDS011;40184;53.362;5.216;2023-12-07T10:18:33;17.80;;;15.77;;
54271;SDS011;40184;53.362;5.216;2023-12-07T10:21:00;16.42;;;14.65;;
54271;SDS011;40184;53.362;5.216;2023-12-07T10:23:26;19.63;;;15.75;;
54271;SDS011;40184;53.362;5.216;2023-12-07T10:25:52;18.23;;;16.05;;
54271;SDS011;40184;53.362;5.216;2023-12-07T10:28:18;17.80;;;15.00;;
54271;SDS011;40184;53.362;5.216;2023-12-07T10:30:45;17.95;;;16.05;;
54271;SDS011;40184;53.362;5.216;2023-12-07T10:33:11;22.73;;;15.13;;
54271;SDS011;40184;53.362;5.216;2023-12-07T10:35:38;17.30;;;15.25;;
54271;SDS011;40184;53.362;5.216;2023-12-07T10:38:05;19.50;;;14.70;;
54271;SDS011;40184;53.362;5.216;2023-12-07T10:40:32;17.38;;;15.57;;
54271;SDS011;40184;53.362;5.216;2023-12-07T10:42:58;17.25;;;15.50;;
54271;SDS011;40184;53.362;5.216;2023-12-07T10:45:26;18.42;;;15.20;;
54271;SDS011;40184;53.362;5.216;2023-12-07T10:47:54;20.15;;;15.75;;
54271;SDS011;40184;53.362;5.216;2023-12-07T10:50:24;18.27;;;15.80;;
54271;SDS011;40184;53.362;5.216;2023-12-07T10:52:52;17.48;;;15.55;;
54271;SDS011;40184;53.362;5.216;2023-12-07T10:55:20;18.00;;;15.70;;
54271;SDS011;40184;53.362;5.216;2023-12-07T10:57:52;19.05;;;16.20;;
54271;SDS011;40184;53.362;5.216;2023-12-07T11:00:22;17.98;;;15.05;;
54271;SDS011;40184;53.362;5.216;2023-12-07T11:02:54;18.30;;;15.48;;
54271;SDS011;40184;53.362;5.216;2023-12-07T11:05:20;17.40;;;15.52;;
54271;SDS011;40184;53.362;5.216;2023-12-07T11:07:55;19.52;;;15.60;;
54271;SDS011;40184;53.362;5.216;2023-12-07T11:10:25;24.95;;;16.25;;
54271;SDS011;40184;53.362;5.216;2023-12-07T11:12:56;21.33;;;16.15;;
54271;SDS011;40184;53.362;5.216;2023-12-07T11:15:26;22.90;;;16.15;;
54271;SDS011;40184;53.362;5.216;2023-12-07T11:17:56;22.95;;;16.90;;
54271;SDS011;40184;53.362;5.216;2023-12-07T11:20:39;20.40;;;15.30;;
54271;SDS011;40184;53.362;5.216;2023-12-07T11:23:07;19.95;;;15.88;;
54271;SDS011;40184;53.362;5.216;2023-12-07T11:25:33;20.58;;;15.52;;
54271;SDS011;40184;53.362;5.216;2023-12-07T11:28:00;23.30;;;16.15;;
54271;SDS011;40184;53.362;5.216;2023-12-07T11:30:27;23.60;;;15.80;;
54271;SDS011;40184;53.362;5.216;2023-12-07T11:32:54;20.52;;;16.05;;
54271;SDS011;40184;53.362;5.216;2023-12-07T11:35:20;21.45;;;16.30;;
54271;SDS011;40184;53.362;5.216;2023-12-07T11:40:35;19.65;;;15.88;;
54271;SDS011;40184;53.362;5.216;2023-12-07T11:43:01;20.45;;;15.57;;
54271;SDS011;40184;53.362;5.216;2023-12-07T11:45:46;20.27;;;16.08;;
54271;SDS011;40184;53.362;5.216;2023-12-07T11:48:16;21.98;;;17.67;;
54271;SDS011;40184;53.362;5.216;2023-12-07T11:50:54;26.13;;;18.65;;
54271;SDS011;40184;53.362;5.216;2023-12-07T11:55:57;21.52;;;17.38;;
54271;SDS011;40184;53.362;5.216;2023-12-07T11:58:27;22.30;;;18.52;;
54271;SDS011;40184;53.362;5.216;2023-12-07T12:00:53;27.77;;;19.00;;
54271;SDS011;40184;53.362;5.216;2023-12-07T12:03:21;19.33;;;16.27;;
54271;SDS011;40184;53.362;5.216;2023-12-07T12:05:47;20.25;;;16.27;;
54271;SDS011;40184;53.362;5.216;2023-12-07T12:08:14;22.65;;;17.90;;
54271;SDS011;40184;53.362;5.216;2023-12-07T12:10:40;22.33;;;18.55;;
54271;SDS011;40184;53.362;5.216;2023-12-07T12:13:10;22.40;;;17.35;;
54271;SDS011;40184;53.362;5.216;2023-12-07T12:15:37;20.15;;;17.40;;
54271;SDS011;40184;53.362;5.216;2023-12-07T12:18:04;24.38;;;16.65;;
54271;SDS011;40184;53.362;5.216;2023-12-07T12:20:30;24.20;;;18.83;;
54271;SDS011;40184;53.362;5.216;2023-12-07T12:22:58;24.85;;;16.52;;
54271;SDS011;40184;53.362;5.216;2023-12-07T12:25:25;24.33;;;18.20;;
54271;SDS011;40184;53.362;5.216;2023-12-07T12:27:53;22.95;;;16.77;;
54271;SDS011;40184;53.362;5.216;2023-12-07T12:30:20;26.92;;;17.35;;
54271;SDS011;40184;53.362;5.216;2023-12-07T12:32:47;21.88;;;17.15;;
54271;SDS011;40184;53.362;5.216;2023-12-07T12:35:14;27.95;;;19.15;;
54271;SDS011;40184;53.362;5.216;2023-12-07T12:37:44;46.83;;;19.40;;
54271;SDS011;40184;53.362;5.216;2023-12-07T12:40:10;41.72;;;21.02;;
54271;SDS011;40184;53.362;5.216;2023-12-07T12:42:36;42.00;;;20.45;;
54271;SDS011;40184;53.362;5.216;2023-12-07T12:45:04;126.00;;;24.08;;
54271;SDS011;40184;53.362;5.216;2023-12-07T12:47:30;107.97;;;19.83;;
54271;SDS011;40184;53.362;5.216;2023-12-07T12:49:57;125.38;;;20.23;;
54271;SDS011;40184;53.362;5.216;2023-12-07T12:52:23;47.92;;;19.00;;
54271;SDS011;40184;53.362;5.216;2023-12-07T12:54:52;74.45;;;19.15;;
54271;SDS011;40184;53.362;5.216;2023-12-07T12:57:21;101.15;;;20.27;;
54271;SDS011;40184;53.362;5.216;2023-12-07T12:59:47;65.00;;;17.75;;
54271;SDS011;40184;53.362;5.216;2023-12-07T13:02:13;47.80;;;16.35;;
54271;SDS011;40184;53.362;5.216;2023-12-07T13:04:40;83.93;;;15.88;;
54271;SDS011;40184;53.362;5.216;2023-12-07T13:07:06;33.13;;;15.05;;
54271;SDS011;40184;53.362;5.216;2023-12-07T13:09:32;82.13;;;15.45;;
54271;SDS011;40184;53.362;5.216;2023-12-07T13:11:58;72.78;;;15.27;;
54271;SDS011;40184;53.362;5.216;2023-12-07T13:14:24;79.07;;;17.58;;
54271;SDS011;40184;53.362;5.216;2023-12-07T13:16:50;114.28;;;17.67;;
54271;SDS011;40184;53.362;5.216;2023-12-07T13:19:17;116.78;;;18.95;;
54271;SDS011;40184;53.362;5.216;2023-12-07T13:21:45;122.75;;;18.67;;
54271;SDS011;40184;53.362;5.216;2023-12-07T13:24:11;69.25;;;19.17;;
54271;SDS011;40184;53.362;5.216;2023-12-07T13:26:40;65.80;;;18.17;;
54271;SDS011;40184;53.362;5.216;2023-12-07T13:29:06;61.55;;;20.95;;
54271;SDS011;40184;53.362;5.216;2023-12-07T13:31:33;71.65;;;22.90;;
54271;SDS011;40184;53.362;5.216;2023-12-07T13:34:00;68.80;;;19.17;;
54271;SDS011;40184;53.362;5.216;2023-12-07T13:36:26;107.25;;;19.27;;
54271;SDS011;40184;53.362;5.216;2023-12-07T13:38:54;64.50;;;15.75;;
54271;SDS011;40184;53.362;5.216;2023-12-07T13:41:21;56.55;;;17.45;;
54271;SDS011;40184;53.362;5.216;2023-12-07T13:43:47;69.00;;;25.70;;
54271;SDS011;40184;53.362;5.216;2023-12-07T13:46:13;59.30;;;14.90;;
54271;SDS011;40184;53.362;5.216;2023-12-07T13:48:41;68.72;;;17.30;;
54271;SDS011;40184;53.362;5.216;2023-12-07T13:51:07;59.67;;;16.83;;
54271;SDS011;40184;53.362;5.216;2023-12-07T13:53:33;46.28;;;14.90;;
54271;SDS011;40184;53.362;5.216;2023-12-07T13:56:00;75.97;;;14.30;;
54271;SDS011;40184;53.362;5.216;2023-12-07T13:58:29;27.90;;;13.00;;
54271;SDS011;40184;53.362;5.216;2023-12-07T14:00:55;45.97;;;14.25;;
54271;SDS011;40184;53.362;5.216;2023-12-07T14:03:21;33.40;;;13.10;;
54271;SDS011;40184;53.362;5.216;2023-12-07T14:05:48;63.85;;;19.48;;
54271;SDS011;40184;53.362;5.216;2023-12-07T14:08:14;63.17;;;35.90;;
54271;SDS011;40184;53.362;5.216;2023-12-07T14:10:40;56.15;;;17.77;;
54271;SDS011;40184;53.362;5.216;2023-12-07T14:13:06;47.47;;;16.42;;
54271;SDS011;40184;53.362;5.216;2023-12-07T14:15:33;44.22;;;19.00;;
54271;SDS011;40184;53.362;5.216;2023-12-07T14:18:00;48.67;;;19.52;;
54271;SDS011;40184;53.362;5.216;2023-12-07T14:20:27;66.57;;;33.33;;
54271;SDS011;40184;53.362;5.216;2023-12-07T14:22:56;37.10;;;15.93;;
54271;SDS011;40184;53.362;5.216;2023-12-07T14:25:29;35.40;;;15.80;;
54271;SDS011;40184;53.362;5.216;2023-12-07T14:27:55;61.90;;;21.17;;
54271;SDS011;40184;53.362;5.216;2023-12-07T14:30:21;40.55;;;16.92;;
54271;SDS011;40184;53.362;5.216;2023-12-07T14:32:47;26.83;;;16.02;;
54271;SDS011;40184;53.362;5.216;2023-12-07T14:35:19;45.55;;;15.57;;
54271;SDS011;40184;53.362;5.216;2023-12-07T14:37:46;31.77;;;15.98;;
54271;SDS011;40184;53.362;5.216;2023-12-07T14:40:12;41.33;;;17.27;;